Time;durP1;ratioP1;P1;durP2;ratioP2;P2;SDS_P1;SDS_P2;PMS_P1;PMS_P2;Temp;Humidity;BMP_temperature;BMP_pressure;BME280_temperature;BME280_humidity;BME280_pressure;Samples;Min_cycle;Max_cycle;Signal;HPM_P1;HPM_P2
2023/02/20 00:01:32;;;;;;;10.07;3.35;;;;;;;;;;5027556;28;20512;-68
2023/02/20 00:03:58;;;;;;;7.83;3.33;;;;;;;;;;5025724;28;20104;-67
2023/02/20 00:06:23;;;;;;;8.63;3.47;;;;;;;;;;5034119;28;20464;-67
2023/02/20 00:08:48;;;;;;;11.38;4.18;;;;;;;;;;5037002;28;20029;-68
2023/02/20 00:11:13;;;;;;;8.77;3.40;;;;;;;;;;5028966;28;20437;-69
2023/02/20 00:13:43;;;;;;;7.82;3.05;;;;;;;;;;5027038;28;20028;-67
2023/02/20 00:16:08;;;;;;;7.65;3.17;;;;;;;;;;5028521;28;20056;-68
2023/02/20 00:18:34;;;;;;;9.80;3.70;;;;;;;;;;5031461;28;20043;-68
2023/02/20 00:20:59;;;;;;;7.93;2.97;;;;;;;;;;5034554;28;20036;-68
2023/02/20 00:23:24;;;;;;;7.93;3.05;;;;;;;;;;5025367;28;20057;-67
2023/02/20 00:25:49;;;;;;;9.07;3.10;;;;;;;;;;5027151;28;20492;-67
2023/02/20 00:28:14;;;;;;;7.90;3.03;;;;;;;;;;5026615;28;20032;-69
2023/02/20 00:30:39;;;;;;;10.17;3.50;;;;;;;;;;5029160;28;20017;-68
2023/02/20 00:33:04;;;;;;;9.50;3.10;;;;;;;;;;5028815;28;20079;-66
2023/02/20 00:35:30;;;;;;;6.90;3.00;;;;;;;;;;5038064;28;20353;-68
2023/02/20 00:37:55;;;;;;;6.80;2.70;;;;;;;;;;5027437;28;20013;-67
2023/02/20 00:40:21;;;;;;;8.77;3.65;;;;;;;;;;5029724;28;20083;-67
2023/02/20 00:42:46;;;;;;;8.23;3.10;;;;;;;;;;5029533;28;20021;-68
2023/02/20 00:45:12;;;;;;;8.07;3.53;;;;;;;;;;5030761;28;20047;-68
2023/02/20 00:47:37;;;;;;;11.60;3.60;;;;;;;;;;5029515;28;20403;-67
2023/02/20 00:50:03;;;;;;;9.57;3.37;;;;;;;;;;5040727;28;20091;-66
2023/02/20 00:52:28;;;;;;;8.98;3.63;;;;;;;;;;5037364;28;20022;-67
2023/02/20 00:54:53;;;;;;;9.17;3.00;;;;;;;;;;5028450;28;21301;-66
2023/02/20 00:57:18;;;;;;;8.05;3.30;;;;;;;;;;5036415;28;20029;-66
2023/02/20 00:59:43;;;;;;;7.80;3.10;;;;;;;;;;5023253;28;20025;-67
2023/02/20 01:02:09;;;;;;;7.95;2.55;;;;;;;;;;5032070;28;20072;-66
2023/02/20 01:04:34;;;;;;;8.00;3.15;;;;;;;;;;5022593;28;20026;-65
2023/02/20 01:06:59;;;;;;;9.63;3.35;;;;;;;;;;5028947;28;20100;-65
2023/02/20 01:09:26;;;;;;;6.77;2.70;;;;;;;;;;5027976;28;20037;-65
2023/02/20 01:11:52;;;;;;;9.80;3.03;;;;;;;;;;5027445;28;20071;-67
2023/02/20 01:14:17;;;;;;;8.55;3.25;;;;;;;;;;5033351;28;20037;-67
2023/02/20 01:16:43;;;;;;;7.63;2.80;;;;;;;;;;5036402;28;20116;-66
2023/02/20 01:19:08;;;;;;;9.30;3.65;;;;;;;;;;5029749;28;20021;-67
2023/02/20 01:21:33;;;;;;;8.57;3.10;;;;;;;;;;5028752;28;20420;-66
2023/02/20 01:23:58;;;;;;;6.57;2.80;;;;;;;;;;5027607;28;20053;-66
2023/02/20 01:26:23;;;;;;;8.93;3.10;;;;;;;;;;5033813;28;20025;-66
2023/02/20 01:28:49;;;;;;;8.27;2.95;;;;;;;;;;5028026;28;20100;-67
2023/02/20 01:31:14;;;;;;;6.82;2.47;;;;;;;;;;5029496;28;20028;-67
2023/02/20 01:33:42;;;;;;;7.35;2.90;;;;;;;;;;5027859;28;20044;-67
2023/02/20 01:36:08;;;;;;;9.45;2.78;;;;;;;;;;5026546;28;20036;-66
2023/02/20 01:38:33;;;;;;;7.80;2.58;;;;;;;;;;5026337;28;20917;-66
2023/02/20 01:40:58;;;;;;;7.72;2.53;;;;;;;;;;5025863;28;20146;-66
2023/02/20 01:43:23;;;;;;;6.65;2.55;;;;;;;;;;5028543;28;20026;-67
2023/02/20 01:45:48;;;;;;;6.45;2.60;;;;;;;;;;5030889;28;20471;-66
2023/02/20 01:48:24;;;;;;;10.35;2.88;;;;;;;;;;5029474;28;20044;-69
2023/02/20 01:50:51;;;;;;;6.10;2.50;;;;;;;;;;5026524;28;20017;-68
2023/02/20 01:53:16;;;;;;;;;;;;;;;;;;5029994;28;20030;-67
2023/02/20 01:55:53;;;;;;;8.70;3.22;;;;;;;;;;5027049;28;19909;-67
2023/02/20 01:58:24;;;;;;;5.53;2.58;;;;;;;;;;5028762;28;20028;-67
2023/02/20 02:00:49;;;;;;;7.25;2.80;;;;;;;;;;5027085;28;20141;-66
2023/02/20 02:03:18;;;;;;;6.47;3.00;;;;;;;;;;5027258;28;20041;-67
2023/02/20 02:05:47;;;;;;;7.55;3.10;;;;;;;;;;5028862;28;20496;-67
2023/02/20 02:08:13;;;;;;;6.82;2.55;;;;;;;;;;5030709;28;20053;-67
2023/02/20 02:10:51;;;;;;;7.63;2.75;;;;;;;;;;5029481;28;20021;-67
2023/02/20 02:13:16;;;;;;;6.35;2.60;;;;;;;;;;5029127;28;20480;-68
2023/02/20 02:15:41;;;;;;;6.63;2.40;;;;;;;;;;5027598;28;20056;-67
2023/02/20 02:18:15;;;;;;;6.65;2.47;;;;;;;;;;5034249;28;20144;-66
2023/02/20 02:20:59;;;;;;;7.85;2.53;;;;;;;;;;5043474;28;20120;-67
2023/02/20 02:23:33;;;;;;;6.90;2.72;;;;;;;;;;5029616;28;20028;-67
2023/02/20 02:26:04;;;;;;;7.78;2.90;;;;;;;;;;5031849;28;20025;-67
2023/02/20 02:28:50;;;;;;;8.30;2.83;;;;;;;;;;5027795;28;20028;-67
2023/02/20 02:31:25;;;;;;;8.05;2.80;;;;;;;;;;5030849;28;20112;-67
2023/02/20 02:34:13;;;;;;;7.47;3.10;;;;;;;;;;5031667;28;20033;-67
2023/02/20 02:36:38;;;;;;;7.32;2.85;;;;;;;;;;5026201;28;20069;-67
2023/02/20 02:39:13;;;;;;;9.55;2.97;;;;;;;;;;5038528;28;20107;-67
2023/02/20 02:41:51;;;;;;;7.85;2.60;;;;;;;;;;5028981;28;20041;-67
2023/02/20 02:44:18;;;;;;;7.28;2.88;;;;;;;;;;5031314;28;20104;-67
2023/02/20 02:47:03;;;;;;;7.25;2.72;;;;;;;;;;5024888;28;20025;-68
2023/02/20 02:49:34;;;;;;;7.38;2.28;;;;;;;;;;5043604;28;20025;-68
2023/02/20 02:52:00;;;;;;;6.78;2.78;;;;;;;;;;5028017;28;20024;-68
2023/02/20 02:54:26;;;;;;;6.97;2.80;;;;;;;;;;5031279;28;20033;-68
2023/02/20 02:56:52;;;;;;;6.38;2.58;;;;;;;;;;5046685;28;20457;-68
2023/02/20 02:59:27;;;;;;;9.18;3.13;;;;;;;;;;5029030;28;20031;-67
2023/02/20 03:01:54;;;;;;;7.53;2.85;;;;;;;;;;5030824;28;20116;-67
2023/02/20 03:04:22;;;;;;;7.13;2.63;;;;;;;;;;5025323;28;20025;-67
2023/02/20 03:06:48;;;;;;;6.65;2.70;;;;;;;;;;5025115;28;20037;-66
2023/02/20 03:09:18;;;;;;;7.47;2.83;;;;;;;;;;5031933;28;20048;-65
2023/02/20 03:11:44;;;;;;;7.55;2.53;;;;;;;;;;5025166;28;20043;-68
2023/02/20 03:17:28;;;;;;;9.40;2.75;;;;;;;;;;5030987;28;20098;-68
2023/02/20 03:19:55;;;;;;;7.43;2.70;;;;;;;;;;5026220;28;20036;-67
2023/02/20 03:22:25;;;;;;;8.55;2.88;;;;;;;;;;5042369;28;20021;-67
2023/02/20 03:24:56;;;;;;;6.80;2.92;;;;;;;;;;5035166;28;20021;-67
2023/02/20 03:27:28;;;;;;;8.07;3.13;;;;;;;;;;5039541;28;20044;-67
2023/02/20 03:29:55;;;;;;;8.50;3.50;;;;;;;;;;5033546;28;20048;-67
2023/02/20 03:43:24;;;;;;;10.75;3.80;;;;;;;;;;5028231;28;20070;-67
2023/02/20 03:46:17;;;;;;;8.82;3.67;;;;;;;;;;5026078;28;20022;-67
2023/02/20 03:48:48;;;;;;;7.93;3.45;;;;;;;;;;5026072;28;20042;-67
2023/02/20 03:51:14;;;;;;;7.50;3.33;;;;;;;;;;5035537;28;20017;-67
2023/02/20 03:53:39;;;;;;;6.57;2.88;;;;;;;;;;5025802;28;20039;-67
2023/02/20 03:56:07;;;;;;;8.70;3.10;;;;;;;;;;5027598;28;20101;-67
2023/02/20 03:58:35;;;;;;;6.95;3.25;;;;;;;;;;5028452;28;20025;-67
2023/02/20 04:01:03;;;;;;;6.97;3.30;;;;;;;;;;5027255;28;20042;-67
2023/02/20 04:03:30;;;;;;;7.40;3.08;;;;;;;;;;5027510;28;20367;-67
2023/02/20 04:05:57;;;;;;;6.63;2.97;;;;;;;;;;5031314;28;20048;-67
2023/02/20 04:08:25;;;;;;;7.03;3.20;;;;;;;;;;5030124;28;20369;-67
2023/02/20 04:10:58;;;;;;;6.20;3.00;;;;;;;;;;5031445;28;20077;-67
2023/02/20 04:13:24;;;;;;;5.97;2.65;;;;;;;;;;5025182;28;20030;-67
2023/02/20 04:15:50;;;;;;;6.57;2.90;;;;;;;;;;5028511;28;20021;-67
2023/02/20 04:18:19;;;;;;;7.07;2.97;;;;;;;;;;5029732;28;20488;-67
2023/02/20 04:20:46;;;;;;;6.38;2.80;;;;;;;;;;5030440;28;20400;-67
2023/02/20 04:23:16;;;;;;;7.03;3.00;;;;;;;;;;5030566;28;20032;-67
2023/02/20 04:25:43;;;;;;;6.65;2.83;;;;;;;;;;5030765;28;20021;-66
2023/02/20 04:28:09;;;;;;;8.15;3.17;;;;;;;;;;5030364;28;20025;-67
2023/02/20 04:30:34;;;;;;;6.50;2.80;;;;;;;;;;5031399;28;20030;-67
2023/02/20 04:32:59;;;;;;;7.30;3.38;;;;;;;;;;5031779;28;20021;-67
2023/02/20 04:35:25;;;;;;;6.70;2.70;;;;;;;;;;5025364;28;20033;-67
2023/02/20 04:37:50;;;;;;;7.30;2.97;;;;;;;;;;5030387;28;20038;-67
2023/02/20 04:40:17;;;;;;;6.27;3.00;;;;;;;;;;5034217;28;20037;-67
2023/02/20 04:42:42;;;;;;;6.45;2.92;;;;;;;;;;5044678;28;20040;-68
2023/02/20 04:45:08;;;;;;;6.77;3.10;;;;;;;;;;5039325;28;20017;-67
2023/02/20 04:47:33;;;;;;;6.73;2.90;;;;;;;;;;5038454;28;20425;-68
2023/02/20 04:49:58;;;;;;;8.10;3.45;;;;;;;;;;5043473;28;20460;-66
2023/02/20 04:52:23;;;;;;;6.60;2.93;;;;;;;;;;5049024;28;21951;-66
2023/02/20 04:54:49;;;;;;;7.60;3.43;;;;;;;;;;5040139;28;20024;-67
2023/02/20 04:57:14;;;;;;;7.78;3.40;;;;;;;;;;5029240;28;20029;-67
2023/02/20 04:59:39;;;;;;;7.47;3.38;;;;;;;;;;5030627;28;20037;-67
2023/02/20 05:02:04;;;;;;;8.87;3.60;;;;;;;;;;5029579;28;20061;-67
2023/02/20 05:04:29;;;;;;;8.17;3.43;;;;;;;;;;5027897;28;20013;-66
2023/02/20 05:06:55;;;;;;;7.45;3.38;;;;;;;;;;5030913;28;20021;-67
2023/02/20 05:09:20;;;;;;;8.80;3.90;;;;;;;;;;5031207;28;20030;-66
2023/02/20 05:11:45;;;;;;;9.65;3.80;;;;;;;;;;5029798;28;20040;-66
2023/02/20 05:14:10;;;;;;;7.20;3.77;;;;;;;;;;5030426;28;20021;-66
2023/02/20 05:16:39;;;;;;;8.27;4.07;;;;;;;;;;5029248;28;20021;-66
2023/02/20 05:19:05;;;;;;;10.10;3.92;;;;;;;;;;5023372;28;20673;-67
2023/02/20 05:24:14;;;;;;;10.52;4.55;;;;;;;;;;5034151;28;20238;-66
2023/02/20 05:26:39;;;;;;;10.27;4.70;;;;;;;;;;5031427;28;20044;-66
2023/02/20 05:29:05;;;;;;;9.18;4.25;;;;;;;;;;5027626;28;20480;-66
2023/02/20 05:31:30;;;;;;;10.75;4.70;;;;;;;;;;5030531;28;20087;-66
2023/02/20 05:33:55;;;;;;;10.33;4.47;;;;;;;;;;5029927;28;20033;-68
2023/02/20 05:36:20;;;;;;;9.77;4.60;;;;;;;;;;5026595;28;20013;-67
2023/02/20 05:38:47;;;;;;;10.18;4.22;;;;;;;;;;5026873;28;20033;-68
2023/02/20 05:41:16;;;;;;;9.48;4.07;;;;;;;;;;5028548;28;20037;-67
2023/02/20 05:43:41;;;;;;;9.00;4.03;;;;;;;;;;5027012;28;20108;-66
2023/02/20 05:46:06;;;;;;;9.07;4.30;;;;;;;;;;5028781;28;20108;-67
2023/02/20 05:48:31;;;;;;;10.63;4.00;;;;;;;;;;5044973;28;20041;-66
2023/02/20 05:50:56;;;;;;;9.75;4.15;;;;;;;;;;5033345;28;20025;-66
2023/02/20 05:53:21;;;;;;;8.80;3.63;;;;;;;;;;5024075;28;20034;-67
2023/02/20 05:55:47;;;;;;;9.33;4.00;;;;;;;;;;5034281;28;20029;-66
2023/02/20 05:58:12;;;;;;;8.87;3.77;;;;;;;;;;5027070;28;20121;-67
2023/02/20 06:00:37;;;;;;;9.90;4.32;;;;;;;;;;5022615;28;20128;-67
2023/02/20 06:03:05;;;;;;;8.60;3.90;;;;;;;;;;5030851;28;20027;-68
2023/02/20 06:05:30;;;;;;;8.20;3.75;;;;;;;;;;5027001;28;20069;-67
2023/02/20 06:07:55;;;;;;;8.52;3.67;;;;;;;;;;5023221;28;20068;-67
2023/02/20 06:10:20;;;;;;;9.23;3.77;;;;;;;;;;5023032;28;20041;-66
2023/02/20 06:12:45;;;;;;;8.60;3.60;;;;;;;;;;5027699;28;20021;-67
2023/02/20 06:15:10;;;;;;;8.55;4.00;;;;;;;;;;5028615;28;20136;-67
2023/02/20 06:17:36;;;;;;;9.07;3.67;;;;;;;;;;5024298;28;20173;-67
2023/02/20 06:20:01;;;;;;;8.70;3.60;;;;;;;;;;5028852;28;20035;-67
2023/02/20 06:22:26;;;;;;;10.25;4.30;;;;;;;;;;5023221;28;20021;-67
2023/02/20 06:24:51;;;;;;;10.40;3.95;;;;;;;;;;5017849;28;20030;-67
2023/02/20 06:27:16;;;;;;;9.15;4.10;;;;;;;;;;5024397;28;20033;-66
2023/02/20 06:29:41;;;;;;;8.80;3.70;;;;;;;;;;5026928;28;20112;-66
2023/02/20 06:32:07;;;;;;;8.30;3.42;;;;;;;;;;5021126;28;20033;-66
2023/02/20 06:34:32;;;;;;;8.75;3.55;;;;;;;;;;5014866;28;20108;-67
2023/02/20 06:37:01;;;;;;;10.48;3.38;;;;;;;;;;5027475;28;20112;-67
2023/02/20 06:39:27;;;;;;;9.25;3.75;;;;;;;;;;5035479;28;20018;-67
2023/02/20 06:41:52;;;;;;;7.70;3.03;;;;;;;;;;5028123;28;20477;-67
2023/02/20 06:44:17;;;;;;;7.28;3.13;;;;;;;;;;5022878;28;20026;-68
2023/02/20 06:46:42;;;;;;;8.45;3.33;;;;;;;;;;5021152;28;20436;-67
2023/02/20 06:49:08;;;;;;;9.10;3.53;;;;;;;;;;5021443;28;20020;-66
2023/02/20 06:51:33;;;;;;;8.25;3.30;;;;;;;;;;5022874;28;20033;-67
2023/02/20 06:53:59;;;;;;;10.30;3.20;;;;;;;;;;5023525;28;20052;-66
2023/02/20 06:56:26;;;;;;;9.55;3.45;;;;;;;;;;5020424;28;20033;-67
2023/02/20 06:58:52;;;;;;;8.05;3.47;;;;;;;;;;5025705;28;20075;-67
2023/02/20 07:01:18;;;;;;;9.20;3.20;;;;;;;;;;5022350;28;20060;-67
2023/02/20 07:03:44;;;;;;;7.70;3.10;;;;;;;;;;5022669;28;20026;-67
2023/02/20 07:06:10;;;;;;;7.10;2.80;;;;;;;;;;5028558;28;20045;-67
2023/02/20 07:08:35;;;;;;;6.95;3.05;;;;;;;;;;5024355;28;20080;-67
2023/02/20 07:11:01;;;;;;;7.23;2.90;;;;;;;;;;5019766;28;20552;-67
2023/02/20 07:13:26;;;;;;;7.75;3.05;;;;;;;;;;5027152;28;20032;-67
2023/02/20 07:15:51;;;;;;;7.30;2.90;;;;;;;;;;5024386;28;20040;-66
2023/02/20 07:18:16;;;;;;;6.32;2.40;;;;;;;;;;5016956;28;20501;-66
2023/02/20 07:20:42;;;;;;;5.65;2.47;;;;;;;;;;5023648;28;20040;-65
2023/02/20 07:23:07;;;;;;;5.78;2.50;;;;;;;;;;5016897;28;20101;-65
2023/02/20 07:25:32;;;;;;;6.78;2.60;;;;;;;;;;5015925;28;20113;-65
2023/02/20 07:27:57;;;;;;;6.13;2.60;;;;;;;;;;5022435;28;20651;-66
2023/02/20 07:30:24;;;;;;;5.70;2.58;;;;;;;;;;5014157;28;20026;-67
2023/02/20 07:32:49;;;;;;;6.50;2.50;;;;;;;;;;5021678;28;20017;-65
2023/02/20 07:35:14;;;;;;;6.00;2.60;;;;;;;;;;5022749;28;20117;-64
2023/02/20 07:37:39;;;;;;;6.10;2.20;;;;;;;;;;5021332;28;20049;-66
2023/02/20 07:40:04;;;;;;;6.00;2.50;;;;;;;;;;5018638;28;20481;-64
2023/02/20 07:42:31;;;;;;;4.80;2.10;;;;;;;;;;5026917;28;20210;-65
2023/02/20 07:44:56;;;;;;;6.60;2.20;;;;;;;;;;5028271;28;20113;-66
2023/02/20 07:47:21;;;;;;;5.40;2.25;;;;;;;;;;5029446;28;20104;-66
2023/02/20 07:49:46;;;;;;;5.53;2.40;;;;;;;;;;5029894;28;20562;-65
2023/02/20 07:52:12;;;;;;;9.30;2.50;;;;;;;;;;5028753;28;20032;-66
2023/02/20 07:54:37;;;;;;;5.13;2.10;;;;;;;;;;5029149;28;20545;-66
2023/02/20 07:57:02;;;;;;;5.70;2.13;;;;;;;;;;5019891;28;20032;-65
2023/02/20 07:59:27;;;;;;;5.40;1.93;;;;;;;;;;5024408;28;20485;-67
2023/02/20 08:01:52;;;;;;;6.88;2.20;;;;;;;;;;5028757;28;20042;-66
2023/02/20 08:04:17;;;;;;;4.72;1.95;;;;;;;;;;5026788;28;20100;-66
2023/02/20 08:06:42;;;;;;;4.97;1.95;;;;;;;;;;5028133;28;20029;-66
2023/02/20 08:09:08;;;;;;;5.65;2.10;;;;;;;;;;5028140;28;20021;-68
2023/02/20 08:11:34;;;;;;;4.30;1.90;;;;;;;;;;5030192;28;20032;-66
2023/02/20 08:13:59;;;;;;;4.80;1.95;;;;;;;;;;5025291;28;20036;-65
2023/02/20 08:16:25;;;;;;;5.30;2.10;;;;;;;;;;5028233;28;20022;-67
2023/02/20 08:18:50;;;;;;;4.20;1.75;;;;;;;;;;5027369;28;20452;-67
2023/02/20 08:21:16;;;;;;;5.37;1.80;;;;;;;;;;5023623;28;20021;-67
2023/02/20 08:23:41;;;;;;;5.13;2.07;;;;;;;;;;5027091;28;20025;-67
2023/02/20 08:26:06;;;;;;;6.30;2.20;;;;;;;;;;5033270;28;20024;-67
2023/02/20 08:28:31;;;;;;;5.28;2.28;;;;;;;;;;5030598;28;20100;-67
2023/02/20 08:30:56;;;;;;;4.53;2.13;;;;;;;;;;5029826;28;20021;-67
2023/02/20 08:33:21;;;;;;;6.57;2.40;;;;;;;;;;5020112;28;20072;-67
2023/02/20 08:35:52;;;;;;;6.38;2.28;;;;;;;;;;5021466;28;20489;-66
2023/02/20 08:38:30;;;;;;;6.43;2.45;;;;;;;;;;5035563;28;20026;-66
2023/02/20 08:40:55;;;;;;;7.57;2.90;;;;;;;;;;5030756;28;20173;-66
2023/02/20 08:43:20;;;;;;;6.53;2.20;;;;;;;;;;5029029;28;20485;-67
2023/02/20 08:45:45;;;;;;;7.23;2.50;;;;;;;;;;5024792;28;20515;-67
2023/02/20 08:48:10;;;;;;;8.47;2.50;;;;;;;;;;5024762;28;20451;-65
2023/02/20 08:50:36;;;;;;;6.63;2.90;;;;;;;;;;5023334;28;20370;-65
2023/02/20 08:53:01;;;;;;;5.93;2.53;;;;;;;;;;5030842;28;20022;-66
2023/02/20 08:55:26;;;;;;;6.28;2.60;;;;;;;;;;5032861;28;20486;-65
2023/02/20 08:57:52;;;;;;;4.88;2.30;;;;;;;;;;5029562;28;20025;-65
2023/02/20 09:00:17;;;;;;;5.60;2.13;;;;;;;;;;5029809;28;20100;-67
2023/02/20 09:02:43;;;;;;;6.00;2.53;;;;;;;;;;5037266;28;20025;-67
2023/02/20 09:05:08;;;;;;;6.07;2.20;;;;;;;;;;5030101;28;20021;-66
2023/02/20 09:07:33;;;;;;;4.65;1.90;;;;;;;;;;5029916;28;20506;-67
2023/02/20 09:09:59;;;;;;;6.57;1.90;;;;;;;;;;5029976;28;20048;-67
2023/02/20 09:12:24;;;;;;;5.07;1.70;;;;;;;;;;5026818;28;20040;-67
2023/02/20 09:14:49;;;;;;;6.10;2.13;;;;;;;;;;5030728;28;20029;-67
2023/02/20 09:17:15;;;;;;;4.45;1.60;;;;;;;;;;5032435;28;20029;-66
2023/02/20 09:19:40;;;;;;;4.00;1.45;;;;;;;;;;5029923;28;20029;-66
2023/02/20 09:22:05;;;;;;;4.18;1.70;;;;;;;;;;5031004;28;20079;-67
2023/02/20 09:24:34;;;;;;;3.72;1.60;;;;;;;;;;5029242;28;20049;-67
2023/02/20 09:27:00;;;;;;;4.13;1.60;;;;;;;;;;5029428;28;20472;-67
2023/02/20 09:29:26;;;;;;;4.97;1.58;;;;;;;;;;5028601;28;20108;-67
2023/02/20 09:31:51;;;;;;;3.53;1.20;;;;;;;;;;5029331;28;20109;-66
2023/02/20 09:34:16;;;;;;;3.95;1.38;;;;;;;;;;5030675;28;20029;-65
2023/02/20 09:36:41;;;;;;;4.32;1.50;;;;;;;;;;5031651;28;20033;-67
2023/02/20 09:39:06;;;;;;;5.40;1.40;;;;;;;;;;5031135;28;20071;-66
2023/02/20 09:41:34;;;;;;;4.38;1.40;;;;;;;;;;5029513;28;20067;-67
2023/02/20 09:44:05;;;;;;;4.10;1.50;;;;;;;;;;5028784;28;20048;-67
2023/02/20 09:46:30;;;;;;;4.20;1.40;;;;;;;;;;5015466;28;20087;-69
2023/02/20 09:49:13;;;;;;;6.63;1.40;;;;;;;;;;5029509;28;20498;-67
2023/02/20 09:51:41;;;;;;;4.45;1.50;;;;;;;;;;5029996;28;20392;-66
2023/02/20 09:54:20;;;;;;;3.55;1.30;;;;;;;;;;5027669;28;20021;-67
2023/02/20 09:56:49;;;;;;;4.05;1.30;;;;;;;;;;5031190;28;20124;-66
2023/02/20 09:59:19;;;;;;;3.47;1.30;;;;;;;;;;5024996;28;20140;-66
2023/02/20 10:01:52;;;;;;;5.95;1.30;;;;;;;;;;5027432;28;20048;-67
2023/02/20 10:04:20;;;;;;;3.80;1.40;;;;;;;;;;5030138;28;20048;-66
2023/02/20 10:06:45;;;;;;;5.05;1.35;;;;;;;;;;5029917;28;20025;-66
2023/02/20 10:09:13;;;;;;;3.60;1.20;;;;;;;;;;5031351;28;20032;-67
2023/02/20 10:11:53;;;;;;;3.85;1.27;;;;;;;;;;5025547;28;20025;-67
2023/02/20 10:14:21;;;;;;;3.50;1.30;;;;;;;;;;5030323;28;20490;-66
2023/02/20 10:16:49;;;;;;;9.15;1.85;;;;;;;;;;5024221;28;20045;-68
2023/02/20 10:19:27;;;;;;;4.05;1.25;;;;;;;;;;5030330;28;20041;-67
2023/02/20 10:22:02;;;;;;;3.83;1.00;;;;;;;;;;5029864;28;20421;-68
2023/02/20 10:24:33;;;;;;;3.05;1.20;;;;;;;;;;5029161;28;20025;-68
2023/02/20 10:27:18;;;;;;;5.63;1.10;;;;;;;;;;5022544;28;20025;-67
2023/02/20 10:29:44;;;;;;;4.43;1.42;;;;;;;;;;5022268;28;20041;-67
2023/02/20 10:32:12;;;;;;;3.42;1.10;;;;;;;;;;5029026;28;20022;-67
2023/02/20 10:34:52;;;;;;;5.57;1.60;;;;;;;;;;5030339;28;20366;-66
2023/02/20 10:37:20;;;;;;;3.72;1.20;;;;;;;;;;5028966;28;20021;-67
2023/02/20 10:39:49;;;;;;;4.82;1.75;;;;;;;;;;5020309;28;20026;-67
2023/02/20 10:42:37;;;;;;;3.50;1.10;;;;;;;;;;5024937;28;20041;-66
2023/02/20 10:45:19;;;;;;;3.70;1.02;;;;;;;;;;5017990;28;20043;-67
2023/02/20 10:47:49;;;;;;;3.80;1.08;;;;;;;;;;5010290;28;20018;-66
2023/02/20 10:50:20;;;;;;;3.70;1.23;;;;;;;;;;5022002;28;20017;-66
2023/02/20 10:52:55;;;;;;;2.90;1.15;;;;;;;;;;5028764;28;20600;-66
2023/02/20 10:55:24;;;;;;;3.85;1.20;;;;;;;;;;5022327;28;20027;-67
2023/02/20 10:57:53;;;;;;;2.95;0.90;;;;;;;;;;5027677;28;20112;-66
2023/02/20 11:00:24;;;;;;;3.78;1.13;;;;;;;;;;5028686;28;20389;-67
2023/02/20 11:02:56;;;;;;;3.33;1.10;;;;;;;;;;5020863;28;20021;-67
2023/02/20 11:05:22;;;;;;;3.67;0.90;;;;;;;;;;5030191;28;20033;-67
2023/02/20 11:07:48;;;;;;;3.92;1.00;;;;;;;;;;5030653;28;20022;-66
2023/02/20 11:10:13;;;;;;;3.92;1.20;;;;;;;;;;5030357;28;20036;-66
2023/02/20 11:12:52;;;;;;;3.53;1.00;;;;;;;;;;5027084;28;20032;-67
2023/02/20 11:15:19;;;;;;;3.40;1.20;;;;;;;;;;5028920;28;20393;-67
2023/02/20 11:17:47;;;;;;;3.03;1.00;;;;;;;;;;5030368;28;20020;-66
2023/02/20 11:20:30;;;;;;;6.10;1.02;;;;;;;;;;5030796;28;20023;-66
2023/02/20 11:22:56;;;;;;;3.40;1.00;;;;;;;;;;5031601;28;20028;-66
2023/02/20 11:25:28;;;;;;;3.70;1.00;;;;;;;;;;5035055;28;20025;-65
2023/02/20 11:28:07;;;;;;;3.35;1.02;;;;;;;;;;5042370;28;20018;-66
2023/02/20 11:30:34;;;;;;;3.47;0.95;;;;;;;;;;5033690;28;20428;-65
2023/02/20 11:33:01;;;;;;;3.10;0.93;;;;;;;;;;5030328;28;20413;-66
2023/02/20 11:35:28;;;;;;;3.08;0.90;;;;;;;;;;5029460;28;20096;-67
2023/02/20 11:38:12;;;;;;;4.28;1.00;;;;;;;;;;5030511;28;20025;-67
2023/02/20 11:40:37;;;;;;;4.05;1.08;;;;;;;;;;5030139;28;20021;-65
2023/02/20 11:43:10;;;;;;;4.03;1.00;;;;;;;;;;5030141;28;20055;-64
2023/02/20 11:45:35;;;;;;;4.80;1.08;;;;;;;;;;5027973;28;20028;-66
2023/02/20 11:48:09;;;;;;;4.20;1.00;;;;;;;;;;5031239;28;20018;-65
2023/02/20 11:50:44;;;;;;;3.92;1.10;;;;;;;;;;5017932;28;20029;-66
2023/02/20 11:53:31;;;;;;;4.90;1.00;;;;;;;;;;5028994;28;20481;-65
2023/02/20 11:56:06;;;;;;;3.10;0.90;;;;;;;;;;5029160;28;20033;-66
2023/02/20 11:58:31;;;;;;;2.50;0.80;;;;;;;;;;5029520;28;20021;-66
2023/02/20 12:00:57;;;;;;;4.20;1.00;;;;;;;;;;5030290;28;20088;-66
2023/02/20 12:03:23;;;;;;;2.80;0.80;;;;;;;;;;5027475;28;20462;-66
2023/02/20 12:05:50;;;;;;;3.67;0.80;;;;;;;;;;5029719;28;20057;-66
2023/02/20 12:08:33;;;;;;;3.40;1.00;;;;;;;;;;5031894;28;20401;-64
2023/02/20 12:11:08;;;;;;;5.63;1.08;;;;;;;;;;5034802;28;20029;-65
2023/02/20 12:13:40;;;;;;;3.20;0.80;;;;;;;;;;5030193;28;20025;-66
2023/02/20 12:16:17;;;;;;;3.08;0.73;;;;;;;;;;5029445;28;20100;-64
2023/02/20 12:19:01;;;;;;;3.03;0.80;;;;;;;;;;5028725;28;20030;-66
2023/02/20 12:21:35;;;;;;;1.83;0.63;;;;;;;;;;5010137;28;20038;-64
2023/02/20 12:24:15;;;;;;;3.13;0.80;;;;;;;;;;5010682;28;20023;-67
2023/02/20 12:26:48;;;;;;;2.85;0.70;;;;;;;;;;5030141;28;20026;-66
2023/02/20 12:29:32;;;;;;;2.20;0.75;;;;;;;;;;5033334;28;20022;-65
2023/02/20 12:32:03;;;;;;;2.70;0.75;;;;;;;;;;5033608;28;20049;-64
2023/02/20 12:34:48;;;;;;;2.78;0.70;;;;;;;;;;5032050;28;20457;-65
2023/02/20 12:37:32;;;;;;;3.47;0.90;;;;;;;;;;5032194;28;20025;-64
2023/02/20 12:40:06;;;;;;;3.60;0.80;;;;;;;;;;5033400;28;20010;-66
2023/02/20 12:42:50;;;;;;;3.05;0.90;;;;;;;;;;5033032;28;20034;-66
2023/02/20 12:45:18;;;;;;;2.90;0.65;;;;;;;;;;5032870;28;20036;-66
2023/02/20 12:47:44;;;;;;;5.15;0.80;;;;;;;;;;5033184;28;20021;-67
2023/02/20 12:50:18;;;;;;;3.60;1.00;;;;;;;;;;5033764;28;20321;-66
2023/02/20 12:52:53;;;;;;;4.25;0.90;;;;;;;;;;5027235;28;20571;-67
2023/02/20 12:55:22;;;;;;;1.85;0.70;;;;;;;;;;5031116;28;20036;-66
2023/02/20 12:57:52;;;;;;;3.40;0.80;;;;;;;;;;5032901;28;20040;-66
2023/02/20 13:00:30;;;;;;;3.70;0.90;;;;;;;;;;5033065;28;20029;-65
2023/02/20 13:03:00;;;;;;;2.80;0.70;;;;;;;;;;5032182;28;20105;-66
2023/02/20 13:05:26;;;;;;;2.72;0.90;;;;;;;;;;5032139;28;20022;-66
2023/02/20 13:07:56;;;;;;;3.30;0.70;;;;;;;;;;5046464;28;20100;-66
2023/02/20 13:10:21;;;;;;;3.47;0.80;;;;;;;;;;5052952;28;20062;-66
2023/02/20 13:12:49;;;;;;;4.22;0.77;;;;;;;;;;5052474;28;20024;-66
2023/02/20 13:15:27;;;;;;;3.03;0.80;;;;;;;;;;5052231;28;20028;-66
2023/02/20 13:18:05;;;;;;;3.63;0.77;;;;;;;;;;5040031;28;20025;-66
2023/02/20 13:20:34;;;;;;;3.33;0.82;;;;;;;;;;5025055;28;20037;-66
2023/02/20 13:23:00;;;;;;;3.17;0.70;;;;;;;;;;5032583;28;20021;-65
2023/02/20 13:25:40;;;;;;;3.72;0.80;;;;;;;;;;5031797;28;20013;-65
2023/02/20 13:28:11;;;;;;;2.95;0.80;;;;;;;;;;5032375;28;20080;-66
2023/02/20 13:30:37;;;;;;;2.80;0.80;;;;;;;;;;5031390;28;20029;-66
2023/02/20 13:33:21;;;;;;;2.53;0.75;;;;;;;;;;5032212;28;20096;-66
2023/02/20 13:35:50;;;;;;;2.55;0.82;;;;;;;;;;5031809;28;20018;-66
2023/02/20 13:38:17;;;;;;;2.65;0.80;;;;;;;;;;5032091;28;20096;-66
2023/02/20 13:41:03;;;;;;;4.78;0.93;;;;;;;;;;5032444;28;20029;-65
2023/02/20 13:43:29;;;;;;;3.85;0.80;;;;;;;;;;5032293;28;20025;-65
2023/02/20 13:45:55;;;;;;;;;;;;;;;;;;5027601;28;20079;-65
2023/02/20 13:48:29;;;;;;;2.30;0.70;;;;;;;;;;5031076;28;19909;-65
2023/02/20 13:51:13;;;;;;;1.88;0.70;;;;;;;;;;5029461;28;20388;-66
2023/02/20 13:53:38;;;;;;;;;;;;;;;;;;5014800;28;20025;-65
2023/02/20 13:56:03;;;;;;;3.03;0.80;;;;;;;;;;5025996;28;19913;-67
2023/02/20 13:58:28;;;;;;;2.30;0.63;;;;;;;;;;5032474;28;20041;-66
2023/02/20 14:00:53;;;;;;;4.15;0.95;;;;;;;;;;5031802;28;21025;-66
2023/02/20 14:03:21;;;;;;;3.20;0.80;;;;;;;;;;5028180;28;20025;-65
2023/02/20 14:05:59;;;;;;;2.97;0.80;;;;;;;;;;5030388;28;20025;-66
2023/02/20 14:08:24;;;;;;;3.17;0.80;;;;;;;;;;5031901;28;20394;-66
2023/02/20 14:10:49;;;;;;;2.13;0.73;;;;;;;;;;5030739;28;20109;-65
2023/02/20 14:13:17;;;;;;;2.35;0.60;;;;;;;;;;5031399;28;20025;-66
2023/02/20 14:15:45;;;;;;;2.65;0.80;;;;;;;;;;5031988;28;20036;-66
2023/02/20 14:18:14;;;;;;;2.55;0.80;;;;;;;;;;5042885;28;20020;-65
2023/02/20 14:20:40;;;;;;;4.25;0.60;;;;;;;;;;5035463;28;20445;-65
2023/02/20 14:23:07;;;;;;;3.53;0.90;;;;;;;;;;5031286;28;20071;-65
2023/02/20 14:25:32;;;;;;;4.35;0.90;;;;;;;;;;5029733;28;20489;-66
2023/02/20 14:28:12;;;;;;;3.83;0.90;;;;;;;;;;5031219;28;20028;-66
2023/02/20 14:30:37;;;;;;;3.58;0.90;;;;;;;;;;5031582;28;20025;-66
2023/02/20 14:33:08;;;;;;;3.80;0.80;;;;;;;;;;5031260;28;20018;-67
2023/02/20 14:35:39;;;;;;;3.33;0.80;;;;;;;;;;5030703;28;20069;-66
2023/02/20 14:38:27;;;;;;;4.07;0.90;;;;;;;;;;5031015;28;20155;-66
2023/02/20 14:40:52;;;;;;;4.38;0.82;;;;;;;;;;5022533;28;20077;-66
2023/02/20 14:43:21;;;;;;;4.07;0.80;;;;;;;;;;5031000;28;20110;-66
2023/02/20 14:45:56;;;;;;;2.83;0.60;;;;;;;;;;5030362;28;20025;-65
2023/02/20 14:48:25;;;;;;;2.95;0.90;;;;;;;;;;5030543;28;20101;-65
2023/02/20 14:51:09;;;;;;;3.33;1.00;;;;;;;;;;5022090;28;20021;-65
2023/02/20 14:53:35;;;;;;;2.72;0.80;;;;;;;;;;5029132;28;20455;-65
2023/02/20 14:56:19;;;;;;;3.70;0.88;;;;;;;;;;5030263;28;20033;-66
2023/02/20 14:58:45;;;;;;;4.15;1.23;;;;;;;;;;5025488;28;20108;-66
2023/02/20 15:01:15;;;;;;;3.38;0.90;;;;;;;;;;5028474;28;20105;-65
2023/02/20 15:03:40;;;;;;;4.80;0.82;;;;;;;;;;5030436;28;20022;-66
2023/02/20 15:06:06;;;;;;;3.17;0.80;;;;;;;;;;5030155;28;20104;-65
2023/02/20 15:08:32;;;;;;;3.97;0.90;;;;;;;;;;5029754;28;20041;-65